Date,TemperatureHighF,TemperatureAvgF,TemperatureLowF,DewpointHighF,DewpointAvgF,DewpointLowF,HumidityHigh,HumidityAvg,HumidityLow,PressureMaxIn,PressureMinIn,WindSpeedMaxMPH,WindSpeedAvgMPH,GustSpeedMaxMPH,PrecipitationSumIn
2013-1-1,33.1,27.6,14.5,20.5,11.6,-0.3,71,51,38,29.90,29.68,13,2,33,0.01
2013-1-2,26.3,16.6,6.7,9.7,2.7,-2.8,66,54,44,30.11,29.87,5,0,19,0.00
2013-1-3,22.5,12.0,0.5,6.9,-3.5,-10.9,63,50,31,30.11,29.93,0,0,6,0.00
2013-1-4,36.6,25.1,14.3,17.0,12.7,5.2,77,60,43,29.93,29.78,14,0,23,0.00
2013-1-5,38.0,32.2,23.7,18.5,14.6,10.4,62,49,32,30.21,29.82,15,1,35,0.00
2013-1-6,41.4,30.2,23.0,24.1,19.9,13.0,75,66,47,30.15,29.88,6,0,10,0.05
2013-1-7,35.1,29.2,18.9,24.0,16.7,9.1,80,61,36,30.33,29.93,9,1,20,0.01
2013-1-8,43.3,25.7,13.1,21.6,13.9,4.8,72,62,37,30.32,30.22,5,0,11,0.00
2013-1-9,40.9,29.7,19.5,28.1,19.5,11.5,80,66,41,30.33,29.96,13,1,36,0.00
2013-1-10,41.6,36.0,26.9,21.4,17.6,15.1,66,48,34,30.50,30.03,15,3,43,0.01
2013-1-11,34.3,30.0,23.7,29.3,21.4,15.4,85,71,55,30.49,30.14,0,0,7,0.20
2013-1-12,41.0,36.0,33.0,36.4,32.2,29.1,88,86,83,30.15,30.08,0,0,0,0.01
2013-1-13,40.6,36.9,34.6,38.2,34.1,31.2,92,90,87,30.10,29.95,0,0,0,0.01
2013-1-14,46.9,39.4,34.9,42.4,27.5,19.2,96,64,43,30.24,29.92,7,1,21,0.00
2013-1-15,38.9,33.7,28.9,22.3,19.7,17.6,68,57,43,30.29,30.18,3,0,8,0.00
2013-1-16,34.4,32.2,30.3,28.5,25.9,21.1,86,78,65,30.19,29.78,0,0,0,0.41
2013-1-17,38.3,30.1,24.4,28.6,19.1,6.3,86,65,44,30.06,29.80,8,1,23,0.01
2013-1-18,26.0,19.0,12.9,7.5,-2.4,-11.3,60,39,27,30.37,30.00,10,0,23,0.00
2013-1-19,42.9,29.1,15.8,20.7,13.6,4.2,69,53,32,30.29,29.80,6,0,18,0.00
2013-1-20,44.9,33.3,23.8,25.9,16.6,0.7,76,53,17,29.92,29.52,13,2,32,0.00
2013-1-21,26.7,22.3,16.3,15.7,7.8,2.8,72,54,40,30.02,29.73,5,0,17,0.01
2013-1-22,22.8,16.2,9.4,15.1,-0.9,-10.6,73,48,26,30.03,29.71,7,1,29,0.01
2013-1-23,11.9,6.9,3.0,-7.2,-11.0,-16.0,54,43,30,30.10,30.02,14,1,28,0.00
2013-1-24,16.7,7.6,-2.8,-9.1,-13.1,-17.3,60,39,24,30.20,30.05,12,1,31,0.00
2013-1-25,21.4,12.8,1.5,6.9,-7.2,-13.6,64,42,22,30.28,30.00,2,0,10,0.01
2013-1-26,21.7,14.4,6.8,6.2,-1.7,-5.8,65,50,32,30.22,29.96,8,0,21,0.00
2013-1-27,28.9,17.0,6.1,-0.4,-3.7,-9.4,60,42,19,30.42,30.21,6,0,20,0.02
2013-1-28,26.2,21.1,13.2,20.8,9.5,-1.8,80,61,41,30.40,29.95,0,0,0,0.13
2013-1-29,37.2,30.8,25.7,28.9,23.2,20.0,85,74,59,30.13,29.95,0,0,0,0.22
2013-1-30,46.5,37.5,32.9,46.5,35.1,28.9,100,91,85,30.06,29.33,3,0,10,0.05
2013-1-31,53.7,39.7,27.5,53.6,27.6,5.2,100,66,32,29.56,28.91,17,4,37,0.91
2013-2-1,28.3,24.0,18.8,8.6,3.0,-0.9,52,40,31,30.04,29.57,13,2,29,0.00
2013-2-2,28.7,21.5,13.8,9.9,1.9,-3.5,57,43,28,30.17,29.97,9,0,24,0.00
2013-2-3,29.3,23.5,17.1,11.9,9.6,6.5,69,55,42,29.99,29.69,1,0,9,0.01
2013-2-4,26.1,21.6,16.4,9.8,6.4,1.6,63,52,36,29.89,29.69,12,1,25,0.01
2013-2-5,30.3,24.2,17.3,17.8,10.0,6.1,70,55,39,29.95,29.85,2,0,8,0.00
2013-2-6,34.8,26.9,20.4,20.5,11.2,-3.1,76,54,28,30.26,29.85,10,1,21,0.00
2013-2-7,31.1,23.0,13.8,5.5,1.3,-2.7,60,40,23,30.46,30.26,1,0,9,0.00
2013-2-8,27.9,24.2,17.3,20.5,12.3,-0.3,88,63,32,30.38,29.67,10,1,23,0.61
2013-2-9,25.2,20.1,14.3,18.3,5.0,-10.3,90,57,26,30.20,29.66,15,2,32,0.13
2013-2-10,38.2,17.7,1.0,5.4,-1.0,-9.8,63,46,20,30.39,30.20,0,0,7,0.00
2013-2-11,36.5,27.4,14.3,33.1,20.9,3.6,90,77,62,30.27,29.60,7,0,17,0.23
2013-2-12,39.7,35.6,32.3,29.8,23.4,20.3,87,62,49,29.76,29.61,12,3,28,0.00
2013-2-21,27.5,23.3,21.0,9.8,5.6,2.8,58,47,37,30.22,29.80,14,4,29,0.00
2013-2-22,40.6,31.2,19.0,20.6,14.7,8.4,70,51,33,30.34,30.21,5,0,16,0.00
2013-2-23,35.0,33.1,31.6,29.6,25.2,19.8,85,73,59,30.25,29.85,0,0,3,0.03
2013-2-24,38.4,34.3,31.6,31.2,28.9,23.6,87,81,72,29.87,29.69,5,0,13,0.10
2013-2-25,40.2,33.6,28.6,24.8,22.4,20.4,73,64,51,30.19,29.87,7,0,14,0.00
2013-2-26,39.9,34.6,28.9,26.1,23.2,21.1,77,63,48,30.27,30.08,5,0,9,0.00
2013-2-27,37.7,34.5,31.7,34.1,30.0,22.0,88,84,60,30.08,29.57,3,0,18,1.64
2013-2-28,40.8,35.8,32.6,32.3,30.3,28.5,88,81,68,29.58,29.50,0,0,0,0.01
2013-3-1,40.4,36.4,32.5,29.7,24.7,19.9,83,64,46,29.67,29.51,8,0,15,0.00
2013-3-2,37.6,33.7,30.9,22.9,19.8,16.3,67,56,49,29.67,29.60,7,1,17,0.00
2013-3-3,35.5,30.1,26.6,19.2,17.1,14.7,63,58,50,29.63,29.56,8,2,18,0.00
2013-3-4,35.1,28.8,24.8,16.1,14.6,12.7,62,55,43,29.77,29.62,13,3,26,0.00
2013-3-5,44.9,34.9,27.0,22.6,18.4,14.7,61,51,37,30.02,29.77,8,1,19,0.00
2013-3-6,38.5,34.9,32.6,28.8,24.4,21.0,77,65,58,30.05,29.98,13,2,23,0.00
2013-3-7,35.9,32.5,29.8,27.7,23.1,20.3,81,68,54,30.04,29.98,8,2,22,0.01
2013-3-8,39.1,34.4,30.1,27.2,22.7,17.0,82,64,44,30.15,29.92,7,0,17,0.06
2013-3-9,55.2,39.1,25.7,19.1,12.2,-8.8,70,39,7,30.29,30.13,3,0,12,0.01
2013-3-10,50.5,37.6,25.5,25.7,20.6,16.4,69,52,30,30.35,30.21,5,0,12,0.00
2013-3-11,46.2,41.4,35.1,36.1,31.5,25.5,77,68,58,30.25,30.07,3,0,14,0.00
2013-3-12,49.4,43.6,39.4,48.3,39.9,30.4,97,87,70,30.06,29.65,6,0,15,1.29
2013-3-13,45.7,37.5,29.2,30.4,21.4,11.6,83,55,25,29.78,29.72,9,1,20,0.00
2013-3-14,33.7,27.3,23.6,19.3,9.0,1.0,63,46,33,29.81,29.74,15,2,28,0.00
2013-3-15,39.7,29.2,21.0,25.7,11.2,-0.1,77,49,25,29.82,29.60,9,1,22,0.01
2013-3-16,38.1,31.0,23.8,17.8,8.4,0.8,57,40,21,29.84,29.66,7,0,15,0.00
2013-3-17,36.2,28.1,21.4,10.6,2.6,-7.5,56,36,16,30.26,29.84,10,1,27,0.00
2013-3-18,37.6,27.1,14.5,19.7,0.9,-9.2,67,35,14,30.40,30.13,5,0,15,0.03
2013-3-19,35.0,30.9,27.7,28.7,25.1,19.6,83,79,67,30.12,29.63,2,0,14,0.92
2013-3-20,41.1,30.3,23.1,23.5,15.5,11.9,77,55,32,29.77,29.67,9,1,20,0.00
2013-3-21,39.3,28.2,19.2,14.7,8.0,3.9,70,45,23,29.77,29.56,5,0,16,0.00
2013-3-22,40.1,29.3,20.4,18.1,11.6,5.9,60,48,33,29.75,29.60,9,1,20,0.00
2013-3-23,39.4,33.1,28.4,18.5,13.8,9.5,63,46,29,29.79,29.68,10,2,32,0.00
2013-3-24,45.8,35.1,24.9,17.4,14.7,11.6,66,45,25,29.83,29.69,8,0,18,0.01
2013-3-25,45.1,36.2,29.3,21.8,17.7,14.2,61,48,29,29.73,29.47,5,0,17,0.00
2013-3-26,46.1,37.6,30.8,25.1,19.2,9.5,65,49,23,29.77,29.54,6,0,18,0.00
2013-3-27,49.8,39.0,29.9,23.7,17.5,12.5,60,44,23,29.86,29.75,9,1,22,0.00
2013-3-28,49.9,40.7,33.1,28.6,24.0,19.8,74,53,31,30.00,29.85,7,0,16,0.00
2013-3-29,51.8,42.7,33.7,26.5,22.8,16.8,71,47,26,30.03,29.97,8,0,17,0.01
2013-3-30,55.2,42.9,33.1,24.9,16.2,1.1,66,39,12,30.07,29.99,7,0,20,0.00
2013-3-31,55.6,41.6,28.6,35.9,21.2,11.0,80,49,17,30.07,29.67,8,1,28,0.10
2013-4-1,56.9,41.3,30.5,39.6,28.9,8.0,84,64,32,29.78,29.49,14,2,34,0.21
2013-4-2,37.6,30.9,26.5,15.5,9.7,2.9,58,41,24,29.93,29.78,18,2,32,0.00
2013-4-3,41.5,32.2,26.2,12.2,7.3,-0.5,51,36,18,30.17,29.92,13,3,32,0.00
2013-4-4,56.3,39.7,24.5,19.0,8.6,-5.3,62,33,8,30.28,29.99,5,0,19,0.00
2013-4-5,56.3,43.0,32.2,24.9,15.2,-0.8,68,38,10,29.99,29.67,10,1,23,0.01
2013-4-6,37.1,33.5,29.0,21.3,13.4,2.7,55,44,32,30.07,29.88,8,0,20,0.00
2013-4-14,49.4,41.7,35.8,20.9,17.9,14.2,53,39,25,30.19,30.07,7,0,15,0.01
2013-4-15,60.0,45.3,30.4,25.8,22.9,20.0,70,44,23,30.34,30.19,5,0,15,0.00
2013-4-16,64.5,49.8,37.2,47.8,36.5,24.9,83,61,36,30.34,30.04,9,2,23,0.10
2013-4-17,66.4,54.1,44.7,48.2,27.1,11.8,85,42,12,30.30,30.05,8,1,17,0.02
2013-4-18,60.5,48.9,35.4,37.7,24.8,13.7,65,42,19,30.37,30.09,10,1,23,0.00
2013-4-19,68.7,58.0,49.5,57.3,50.0,37.7,90,75,57,30.09,29.59,9,2,25,0.28
2013-4-20,60.9,48.9,36.2,57.3,28.8,14.7,88,50,20,30.25,29.60,10,1,25,0.43
2013-4-21,56.5,41.0,30.0,17.9,10.6,-5.1,56,32,8,30.61,30.25,7,0,23,0.00
2013-4-22,58.0,43.7,30.1,23.6,15.9,6.3,56,36,13,30.68,30.52,12,1,23,0.01
2013-4-23,42.2,38.9,36.0,33.1,27.5,22.6,77,63,51,30.53,30.10,7,1,14,0.00
2013-4-24,77.2,54.5,39.5,42.1,35.5,25.4,81,55,15,30.09,29.74,8,1,23,0.00
2013-4-25,63.7,50.7,41.7,45.1,23.7,-0.4,80,41,8,30.24,29.78,8,1,22,0.06
2013-4-26,63.7,48.8,33.3,26.0,19.6,12.1,64,36,14,30.38,30.23,3,0,13,0.00
2013-4-27,70.6,52.5,35.8,31.6,23.5,8.6,64,37,9,30.38,30.23,3,0,15,0.00
2013-4-28,73.5,55.7,39.4,35.1,26.5,15.9,69,38,12,30.30,30.15,5,0,16,0.00
2013-4-29,64.7,54.4,45.7,37.3,27.4,21.5,54,37,23,30.22,30.16,6,0,18,0.01
2013-4-30,77.3,59.3,48.0,34.6,20.2,-0.2,56,29,6,30.31,30.20,3,0,13,0.00
2013-5-1,79.9,58.2,39.2,34.7,20.5,4.7,56,30,6,30.44,30.30,2,0,13,0.00
2013-5-2,83.6,60.8,43.7,38.4,26.4,5.4,69,36,6,30.42,30.24,9,0,24,0.00
2013-5-3,72.9,56.7,41.7,36.3,28.9,22.3,60,37,16,30.48,30.32,5,0,15,0.01
2013-5-4,76.6,58.0,41.7,39.8,26.8,-0.6,77,39,7,30.34,30.19,7,0,17,0.01
2013-5-5,76.4,54.7,35.7,34.7,23.3,3.6,65,37,6,30.29,30.15,3,0,13,0.02
2013-5-6,78.0,56.0,39.9,39.3,30.6,8.5,79,46,7,30.25,30.08,2,0,9,0.02
2013-5-7,82.0,62.4,43.8,47.0,36.2,8.5,79,46,8,30.14,30.03,5,0,16,0.01
2013-5-8,71.8,61.9,54.2,56.7,51.1,45.6,84,69,43,30.14,30.00,7,0,20,0.26
2013-5-9,70.4,61.0,56.0,55.1,51.1,45.3,84,72,41,30.00,29.84,6,0,17,2.52
2013-5-10,76.3,64.4,50.2,55.5,49.3,41.6,87,61,29,29.94,29.85,5,0,10,0.01
2013-5-11,64.6,60.5,57.0,58.2,55.1,50.2,91,83,67,29.86,29.65,6,0,21,0.41
2013-5-12,66.1,57.5,46.7,57.3,38.6,19.0,91,54,19,29.81,29.58,9,1,23,0.02
2013-5-13,54.5,47.0,39.3,28.5,21.9,15.3,64,39,21,30.01,29.81,9,0,19,0.10
2013-5-14,59.5,47.9,37.8,29.2,22.1,13.7,60,39,17,30.02,29.95,5,0,14,0.00
2013-5-15,58.7,46.5,33.4,49.4,35.5,25.4,82,67,37,30.03,29.63,6,0,22,0.18
2013-5-16,81.5,61.4,42.2,49.5,28.8,7.3,92,44,6,29.78,29.63,9,1,25,0.02
2013-5-17,73.6,58.7,46.1,36.6,29.0,8.1,68,37,8,30.19,29.78,8,0,18,0.01
2013-5-18,73.9,59.2,46.3,41.0,34.9,25.1,67,44,18,30.27,30.18,3,0,13,0.01
2013-5-19,61.6,54.4,46.1,50.8,45.6,38.3,89,73,55,30.30,30.16,5,0,14,0.21
2013-5-20,85.0,66.3,53.8,58.9,53.4,49.3,90,68,30,30.15,29.91,3,0,10,0.01
2013-5-21,87.9,68.7,55.5,64.0,56.1,48.0,82,66,27,29.98,29.78,6,0,16,1.13
2013-5-22,76.2,64.1,54.7,62.2,56.0,49.1,86,76,58,29.99,29.81,3,0,9,0.84
2013-5-23,71.3,66.0,63.3,63.6,61.9,60.7,93,87,75,29.85,29.73,6,0,15,1.53
2013-5-24,65.3,58.0,45.9,61.9,51.2,38.8,93,79,58,29.87,29.61,6,1,15,0.27
2013-5-25,46.9,44.0,40.3,41.1,38.3,34.7,85,80,75,29.85,29.77,5,0,17,0.42
2013-5-26,55.7,47.0,39.5,40.4,35.6,32.9,84,66,45,30.09,29.75,9,2,23,0.07
2013-5-27,75.6,56.5,39.1,37.3,29.0,12.0,83,43,10,30.14,30.06,9,1,21,0.01
2013-5-28,73.6,56.5,43.8,41.1,35.5,29.4,75,50,22,30.20,30.11,2,0,10,0.01
2013-6-15,78.9,65.8,57.1,43.2,38.0,18.8,57,39,11,29.94,29.88,1,0,13,0.01
2013-6-16,71.3,62.0,49.5,56.4,48.6,40.4,76,62,52,29.94,29.68,7,0,14,0.02
2013-6-17,84.8,68.4,56.1,59.0,51.6,40.3,83,60,22,29.89,29.76,8,0,25,0.82
2013-6-18,71.2,61.7,56.9,57.9,53.5,48.8,84,75,56,29.91,29.85,2,0,12,0.11
2013-6-19,81.9,63.3,51.5,51.7,42.4,26.9,81,53,14,30.02,29.88,3,0,10,0.00
2013-6-20,86.3,70.3,48.9,51.2,40.8,20.5,73,40,11,30.24,30.17,3,0,13,0.01
2013-6-21,89.6,68.9,54.1,55.7,49.3,29.3,78,55,12,30.23,30.17,5,0,10,0.01
2013-6-22,87.3,72.6,59.8,57.1,51.7,40.6,75,52,21,30.21,30.08,6,0,15,0.00
2013-6-23,93.9,76.7,64.4,62.1,55.4,45.9,69,50,20,30.14,29.98,7,0,16,0.01
2013-6-24,94.9,76.7,66.8,65.2,59.3,50.2,78,58,23,30.02,29.90,8,0,22,0.08
2013-6-25,91.7,76.6,64.2,64.6,58.2,50.9,82,57,25,29.95,29.73,7,0,22,0.02
2013-6-26,82.6,74.6,67.8,62.8,59.8,55.9,76,61,44,29.81,29.72,7,0,15,0.01
2013-6-27,80.3,71.7,66.6,65.4,61.6,58.0,81,71,53,29.81,29.67,3,0,9,0.78
2013-6-28,82.3,72.5,65.3,68.4,63.7,60.3,92,75,50,29.67,29.44,8,0,15,2.20
2013-6-29,86.0,74.7,67.9,64.5,61.0,51.7,82,65,32,29.68,29.47,7,1,15,0.01
2013-6-30,83.2,73.5,67.7,68.4,63.4,60.2,80,72,46,29.91,29.68,5,0,11,0.14
2013-7-1,75.3,72.0,70.0,68.2,66.2,64.0,87,82,77,30.04,29.91,1,0,8,0.53
2013-7-2,86.5,74.8,69.6,68.5,66.1,63.0,91,76,46,30.15,30.03,6,0,14,0.01
2013-7-3,89.8,78.1,71.1,66.3,63.8,57.4,83,64,36,30.19,30.13,6,0,15,0.00
2013-7-4,94.4,79.8,69.0,67.6,62.7,56.6,82,59,29,30.20,30.10,7,1,15,0.02
2013-7-5,96.7,81.8,70.2,67.9,62.5,52.1,79,55,24,30.16,30.04,6,0,14,0.02
2013-7-6,93.9,80.1,70.9,67.5,61.5,52.0,78,56,26,30.08,30.00,6,0,14,0.01
2013-7-7,92.0,76.7,69.0,69.9,64.3,60.3,78,67,39,30.03,29.91,3,0,9,0.13
2013-7-8,88.0,76.7,68.4,67.9,62.3,55.7,87,64,36,30.01,29.90,6,0,13,0.01
2013-7-9,80.8,74.3,70.2,66.2,64.5,63.0,81,72,59,30.07,30.00,5,0,9,0.07
2013-7-10,79.9,74.0,70.2,69.9,67.1,63.9,88,79,65,30.02,29.77,6,0,12,1.11
2013-7-11,85.8,75.3,69.1,68.8,63.1,49.6,88,69,30,29.93,29.75,5,0,9,0.02
2013-7-12,81.4,72.5,65.9,57.7,52.7,50.0,67,51,35,30.17,29.93,6,0,14,0.02
2013-7-13,77.7,69.6,62.9,64.3,58.2,48.5,79,67,53,30.28,30.16,2,0,7,0.04
2013-7-14,95.0,79.2,68.9,67.2,63.3,54.8,85,62,27,30.30,30.20,5,0,10,0.02
2013-7-15,95.3,81.1,70.5,66.7,61.2,48.5,80,55,21,30.21,30.12,5,0,12,0.02
2013-7-16,95.7,80.8,68.5,63.5,57.3,44.7,72,48,19,30.17,30.12,5,0,12,0.02
2013-7-17,97.3,81.0,68.5,65.6,60.6,51.6,74,53,22,30.18,30.01,3,0,9,0.05
2013-7-18,98.7,83.5,72.4,68.2,61.1,49.8,78,51,21,30.01,29.94,5,0,11,0.04
2013-7-19,97.8,83.8,71.2,66.6,61.3,55.3,74,50,26,29.93,29.73,6,1,16,0.01
2013-7-20,90.3,79.4,71.3,67.1,58.9,50.8,71,51,31,29.81,29.67,6,0,15,0.03
2013-7-21,89.3,75.2,64.0,61.0,55.6,51.4,73,52,28,29.96,29.82,5,0,7,0.02
2013-7-22,87.6,73.9,63.7,64.7,58.1,54.7,76,60,34,29.98,29.82,2,0,8,0.07
2013-7-23,82.8,73.9,68.3,67.1,63.5,57.4,83,71,43,29.82,29.53,6,0,12,2.90
2013-7-24,84.0,72.3,63.4,64.1,53.4,40.9,81,55,24,29.97,29.58,6,1,15,0.02
2013-7-25,72.1,63.4,56.2,53.7,44.9,37.8,67,51,38,30.07,29.97,5,0,11,0.02
2013-7-26,78.9,66.6,61.4,56.8,52.8,47.7,77,63,39,30.04,29.96,3,0,10,0.16
2013-7-27,85.7,69.0,56.2,57.9,52.7,47.5,78,59,28,30.03,29.95,5,0,10,0.03
2013-7-28,80.0,70.6,62.4,62.0,56.9,52.5,79,63,43,29.99,29.93,2,0,9,0.01
2013-7-29,89.3,74.3,65.9,60.5,55.1,41.1,77,55,19,30.06,29.95,6,0,13,0.01
2013-7-30,85.1,70.4,58.4,51.6,46.9,37.9,69,46,19,30.11,30.04,6,0,13,0.02
2013-7-31,83.7,70.2,58.8,55.4,50.5,42.3,73,53,25,30.13,30.02,5,0,10,0.02
2013-8-1,76.7,65.6,59.1,59.2,55.6,49.5,81,71,48,30.03,29.83,5,0,14,0.66
2013-8-2,86.4,71.5,63.1,60.0,53.2,39.3,84,58,20,29.86,29.77,6,0,16,0.11
2013-8-3,84.0,69.3,61.1,56.1,50.2,39.4,76,54,22,29.85,29.77,6,0,12,0.02
2013-8-4,78.0,66.0,54.6,51.1,46.4,39.2,76,52,25,29.90,29.79,5,0,21,0.09
2013-8-5,79.3,63.1,52.7,48.1,39.5,23.7,76,48,13,30.02,29.90,7,0,20,0.04
2013-8-6,82.0,64.6,50.5,50.3,43.4,32.8,73,50,17,30.11,30.02,2,0,10,0.02
2013-8-7,78.0,67.1,57.6,54.8,49.5,42.5,76,56,29,30.15,30.06,5,0,15,0.02
2013-8-8,80.7,72.0,65.6,63.4,60.3,54.8,82,67,52,30.06,29.98,6,0,14,0.09
2013-8-9,76.3,71.9,68.4,70.0,65.4,61.2,90,80,72,29.99,29.75,5,0,9,3.25
2013-8-10,81.5,70.3,61.4,61.2,46.3,22.8,80,49,16,30.01,29.81,7,1,21,0.03
2013-8-11,84.0,67.2,54.3,52.3,43.4,32.5,71,46,17,30.08,29.99,5,0,10,0.02
2013-8-12,85.5,69.6,58.1,55.3,50.1,41.2,75,53,22,30.01,29.90,3,0,9,0.00
2013-8-13,73.9,67.1,62.6,63.3,57.9,53.6,84,72,62,29.91,29.66,5,0,8,0.77
2013-8-14,74.0,63.3,54.6,57.8,44.9,39.2,77,53,29,29.96,29.68,8,2,20,0.01
2013-8-15,77.8,62.1,50.1,49.2,43.1,34.5,80,54,21,30.10,29.97,5,0,18,0.00
2013-8-16,82.5,65.0,52.6,51.4,44.5,29.0,74,52,15,30.18,30.09,5,0,13,0.03
2013-8-17,83.4,66.8,53.9,53.8,47.9,40.1,75,54,23,30.26,30.18,2,0,8,0.02
2013-8-18,76.5,66.6,57.9,59.0,53.6,49.1,73,64,43,30.25,30.07,0,0,5,0.03
2013-8-19,79.3,68.2,57.8,57.5,52.0,46.6,79,59,32,30.07,29.96,5,0,10,0.02
2013-8-20,85.9,70.0,56.9,57.7,51.3,41.7,79,55,23,30.10,29.99,5,0,13,0.02
2013-8-21,88.8,72.0,58.8,59.3,53.2,43.2,76,55,22,30.14,30.00,5,0,12,0.02
2013-8-22,83.0,72.7,61.6,63.1,59.0,52.8,76,63,49,30.02,29.82,6,0,13,0.01
2013-8-23,79.6,69.5,59.5,61.5,50.5,39.9,76,54,25,30.12,29.83,7,0,17,0.04
2013-8-24,81.9,64.6,51.8,50.4,42.5,31.1,73,48,17,30.31,30.12,3,0,10,0.01
2013-8-25,83.8,66.0,51.5,52.5,45.8,34.4,73,52,19,30.35,30.16,5,0,10,0.01
2013-8-26,80.5,69.7,61.6,61.6,55.6,46.3,79,62,40,30.16,29.87,7,0,13,0.54
2013-8-27,87.3,74.4,67.0,64.4,61.0,54.6,82,65,33,29.88,29.81,5,0,12,0.25
2013-8-28,86.3,73.5,65.0,62.9,60.1,55.3,79,65,37,29.93,29.82,5,0,14,0.03
2013-8-29,77.3,69.2,65.2,61.7,56.7,54.6,76,65,48,30.04,29.91,6,0,10,0.01
2013-8-30,85.5,71.5,62.8,61.4,56.9,52.6,77,62,33,30.01,29.82,6,0,11,0.00
2013-8-31,80.0,71.9,67.0,67.0,63.1,58.2,82,74,59,29.82,29.75,5,0,14,0.57
2013-9-1,78.6,72.0,66.2,66.4,63.9,59.8,82,76,63,29.85,29.79,5,0,13,0.15
2013-9-2,78.9,72.3,68.4,68.8,65.1,62.7,88,78,62,29.82,29.68,2,0,9,0.27
2013-9-3,74.7,67.5,59.5,63.9,56.5,49.5,81,69,42,29.83,29.69,6,0,12,0.03
2013-9-4,79.3,65.9,56.2,54.2,49.1,37.6,82,59,23,29.91,29.82,6,0,14,0.01
2013-9-5,70.4,61.0,51.5,56.3,44.6,24.8,83,59,18,30.13,29.85,5,0,18,0.03
2013-9-6,69.4,55.0,43.3,41.1,37.2,26.9,75,54,25,30.22,30.07,3,0,13,0.02
2013-9-7,77.6,59.2,45.5,53.2,44.7,37.8,80,62,24,30.07,29.84,2,0,10,0.01
2013-9-8,71.0,64.2,58.8,55.2,47.0,28.0,81,59,21,29.91,29.75,8,1,22,0.02
2013-9-9,64.2,58.5,54.3,48.3,46.8,44.9,71,65,54,30.12,30.10,0,0,0,0.02
2013-9-10,72.0,62.0,53.0,66.1,56.8,44.8,94,83,72,30.11,29.99,3,0,10,0.46
2013-9-11,89.8,73.8,63.3,69.7,64.0,58.6,92,74,40,30.05,29.92,15,0,35,0.18
2013-9-12,80.8,71.2,66.0,68.2,63.0,58.8,83,76,60,29.95,29.65,6,0,15,0.58
2013-9-13,74.9,66.2,57.3,61.8,55.9,47.8,87,71,45,29.78,29.59,6,0,13,0.07
2013-9-14,64.7,57.3,51.2,48.0,43.8,41.2,76,62,43,30.03,29.77,7,1,15,0.01
2013-9-15,69.6,56.2,44.1,50.7,43.7,37.4,83,65,32,30.14,30.02,3,0,9,0.01
2013-9-16,67.1,56.6,46.3,52.3,44.2,30.1,87,65,41,30.24,29.99,6,0,13,0.06
2013-9-17,64.5,50.1,38.6,41.8,34.0,29.5,78,56,28,30.41,30.24,3,0,12,0.01
2013-9-18,70.8,53.3,39.7,48.3,41.1,33.7,84,66,36,30.30,30.12,2,0,9,0.01
2013-9-19,73.6,56.9,43.6,53.2,44.9,37.5,85,67,34,30.13,30.01,2,0,7,0.02
2013-9-20,54.6,52.0,49.4,46.3,44.2,42.2,76,75,74,30.04,30.03,0,0,0,0.00
2013-9-22,57.4,52.9,50.2,43.0,40.4,36.8,72,63,48,29.85,29.75,2,0,10,0.00
2013-9-23,60.2,50.2,41.9,40.5,36.6,33.5,81,61,37,30.00,29.84,7,0,16,0.01
2013-9-24,64.5,50.6,38.6,41.8,35.4,24.8,84,61,23,30.00,29.81,7,0,20,0.00
2013-9-25,68.6,54.6,42.1,50.7,43.5,37.0,87,68,42,29.95,29.84,3,0,9,0.01
2013-9-26,65.9,56.4,50.2,48.5,42.9,39.0,78,62,38,30.09,29.95,5,0,10,0.02
2013-9-27,62.5,55.4,48.3,47.8,45.0,42.7,84,69,49,30.25,30.08,6,0,10,0.01
2013-9-28,71.6,56.0,43.5,51.5,44.8,38.0,88,68,37,30.30,30.22,3,0,8,0.00
2013-9-29,69.0,55.3,46.2,50.1,45.0,40.4,85,70,38,30.22,30.06,3,0,8,0.02
2013-9-30,49.7,47.0,45.5,42.2,41.1,40.3,82,80,76,30.08,30.05,0,0,0,0.00
2013-10-1,67.7,59.7,54.8,52.1,50.1,47.4,76,71,56,29.90,29.85,0,0,0,0.01
2013-10-2,74.8,61.3,48.7,56.1,48.6,44.2,91,66,40,29.96,29.85,8,1,21,0.02
2013-10-3,73.3,59.1,49.1,46.7,43.5,25.7,79,60,17,30.08,29.96,2,0,9,0.02
2013-10-4,63.2,56.9,51.2,54.9,49.7,44.3,85,77,64,30.07,30.00,3,0,9,0.65
2013-10-5,69.2,61.8,56.9,56.5,54.0,51.9,90,77,55,30.08,30.01,1,0,7,0.11
2013-10-6,60.7,56.5,53.5,55.5,52.5,49.9,90,86,81,30.15,30.05,1,0,8,0.62
2013-10-7,68.9,58.8,53.8,66.0,55.6,48.5,98,89,76,30.07,29.71,10,1,28,0.50
2013-10-8,62.6,52.2,44.1,48.4,38.3,25.0,89,64,24,30.34,29.90,6,0,16,0.03
2013-10-9,61.7,48.8,39.2,42.4,37.5,34.7,85,67,37,30.44,30.32,2,0,10,0.01
2013-10-10,55.5,47.6,39.3,43.8,39.4,34.5,87,74,51,30.32,30.13,0,0,5,0.01
2013-10-11,68.2,54.6,44.2,46.8,40.9,28.3,84,63,24,30.13,30.05,6,0,12,0.00
2013-10-12,58.6,52.3,45.1,48.8,44.9,39.9,86,76,64,30.34,30.11,3,0,10,0.00
2013-10-13,60.4,54.0,47.6,46.6,43.4,40.9,80,68,49,30.40,30.32,5,0,9,0.00
2013-10-14,64.1,53.5,43.9,47.9,43.3,37.8,83,70,47,30.35,30.20,5,0,9,0.02
2013-10-15,68.4,58.7,51.2,51.0,48.0,45.6,85,69,44,30.23,30.11,3,0,8,0.00
2013-10-16,58.8,52.9,47.6,46.3,44.0,41.0,85,72,52,30.12,29.86,0,0,6,0.02
2013-10-17,70.5,58.3,50.1,54.0,46.6,40.7,88,68,35,29.87,29.64,5,0,13,0.02
2013-10-18,62.9,56.0,43.0,57.5,42.8,33.9,93,64,34,29.89,29.57,10,1,21,0.10
2013-10-19,61.7,48.6,37.7,43.7,36.4,31.8,86,65,36,29.93,29.69,6,0,17,0.01
2013-10-20,57.9,49.4,41.1,45.5,32.2,20.1,83,55,23,29.99,29.66,9,1,21,0.02
2013-10-21,53.4,46.2,41.4,34.9,33.8,31.7,71,62,47,30.02,29.93,2,0,8,0.00
2013-10-22,58.0,46.7,37.8,45.5,37.2,31.1,89,70,52,29.93,29.68,7,0,20,0.01
2013-10-23,50.6,43.0,34.6,32.6,29.2,25.8,78,59,41,29.77,29.55,1,0,9,0.03
2013-10-24,50.2,42.1,35.6,29.4,23.1,13.9,69,49,24,29.87,29.63,10,1,26,0.00
2013-10-25,46.8,38.0,31.1,30.5,23.8,17.7,83,59,32,30.12,29.87,9,1,22,0.01
2013-10-26,52.7,39.8,28.2,30.9,23.4,15.4,84,56,23,30.12,29.81,10,1,23,0.01
2013-10-27,50.4,44.0,33.9,29.8,25.7,20.8,67,50,32,30.03,29.76,9,1,21,0.00
2013-10-28,53.7,39.8,29.5,30.4,25.4,21.4,82,59,31,30.31,30.03,8,0,21,0.02
2013-10-29,47.2,36.2,29.0,22.0,19.3,15.4,71,52,28,30.41,30.31,3,0,12,0.00
2013-10-30,49.8,38.7,31.6,33.2,28.0,20.7,79,66,51,30.31,30.14,1,0,7,0.01
2013-10-31,53.9,41.5,32.4,53.3,38.1,27.0,98,88,78,30.19,29.72,1,0,13,0.44
2013-11-1,64.6,57.3,47.8,61.0,51.1,38.4,100,82,49,29.72,29.40,10,1,27,0.21
2013-11-2,59.9,49.4,40.1,43.4,38.7,34.9,84,68,40,29.72,29.56,7,0,13,0.04
2013-11-3,46.2,39.5,30.3,40.3,21.9,9.2,81,51,31,30.40,29.72,6,1,15,0.02
2013-11-4,40.9,31.4,24.6,15.8,11.5,4.5,63,45,22,30.65,30.40,5,0,14,0.03
2013-11-5,47.5,35.3,25.2,29.3,22.2,15.8,72,60,40,30.65,30.44,5,0,13,0.02
2013-11-6,57.9,46.5,36.5,42.7,35.3,29.3,81,66,45,30.45,29.98,8,1,21,0.00
2013-11-7,57.2,47.7,38.9,53.2,39.3,21.6,90,73,49,29.98,29.67,9,1,18,0.12
2013-11-8,44.1,36.2,29.9,32.2,22.6,16.5,86,59,37,30.07,29.81,12,1,31,0.02
2013-11-9,42.6,34.3,25.4,27.0,21.2,17.7,76,59,43,30.19,29.94,7,0,13,0.00
2013-11-10,47.6,40.2,34.3,34.3,29.4,22.3,85,66,47,29.94,29.71,13,1,30,0.02
2013-11-11,48.1,41.6,36.2,27.0,22.1,19.8,59,46,34,30.08,29.85,13,1,25,0.02
2013-11-12,43.2,32.7,25.7,28.0,16.3,8.2,65,51,39,30.17,29.85,10,1,23,0.01
2013-11-13,33.4,26.6,21.6,13.4,8.3,1.8,60,47,26,30.27,30.12,7,0,17,0.00
2013-11-14,48.1,33.7,25.4,17.5,15.0,11.9,65,49,24,30.12,30.01,7,0,20,0.00
2013-11-15,53.2,35.7,23.5,20.1,15.9,10.6,68,48,18,30.16,30.06,2,0,12,0.00
2013-11-16,55.6,40.6,32.3,26.0,23.7,20.1,68,53,26,30.26,30.15,2,0,8,0.01
2013-11-17,46.8,41.3,33.0,44.8,37.1,24.1,93,85,68,30.25,29.77,0,0,0,0.20
2013-11-18,60.5,52.5,43.5,56.3,39.9,24.1,100,66,32,29.76,29.49,10,1,27,0.39
2013-11-19,43.3,36.5,28.8,25.2,16.0,11.6,52,43,32,30.28,29.67,13,2,32,0.00
2013-11-20,38.9,28.8,21.8,14.2,10.9,5.4,67,48,26,30.58,30.29,5,0,15,0.00
2013-11-21,41.2,30.7,19.6,24.9,16.4,11.4,72,56,35,30.59,30.33,1,0,10,0.01
2013-11-22,44.5,40.1,36.8,40.3,34.9,25.0,90,82,62,30.32,29.80,7,0,18,0.07
2013-11-23,44.9,35.6,24.4,39.9,19.4,8.9,83,52,38,29.94,29.77,12,4,29,0.00
2013-11-24,24.6,19.6,14.7,12.9,-1.0,-12.2,65,41,20,30.19,29.80,15,4,41,0.00
2013-11-25,31.4,23.0,12.6,8.4,1.6,-5.3,52,39,33,30.33,30.19,6,0,18,0.00
2013-11-26,34.9,31.7,27.2,28.7,19.2,8.2,86,61,41,30.26,29.95,0,0,12,0.29
2013-11-27,45.5,38.1,32.5,45.5,34.9,23.9,100,89,66,29.95,29.25,10,0,20,1.15
2013-11-28,34.1,25.0,18.6,24.1,8.8,2.7,69,51,34,30.39,29.49,15,3,35,0.00
2013-11-29,31.4,23.7,16.8,13.1,9.6,4.7,71,56,34,30.68,30.39,3,0,14,0.00
2013-11-30,29.1,21.5,12.0,12.2,7.1,3.8,70,55,37,30.73,30.35,1,0,10,0.00
2013-12-1,37.4,31.9,27.1,28.4,23.0,12.1,82,70,52,30.35,29.98,0,0,0,0.01
2013-12-2,39.5,35.4,31.8,32.7,30.0,26.6,86,80,75,29.98,29.86,0,0,3,0.00
2013-12-3,44.2,35.8,29.3,32.6,29.0,23.9,90,77,61,29.92,29.81,5,0,10,0.00
2013-12-4,41.1,31.4,24.7,27.7,23.8,19.7,85,74,53,30.13,29.91,5,0,10,0.01
2013-12-5,43.3,36.6,31.3,42.7,33.2,25.9,98,88,79,30.13,29.87,0,0,0,0.15
2013-12-6,46.6,41.6,34.1,46.6,35.5,26.0,100,80,54,30.12,29.82,8,1,21,0.22
2013-12-7,34.6,31.6,25.2,30.2,23.7,17.7,86,73,55,30.41,30.04,8,0,18,0.09
2013-12-8,30.2,26.9,21.3,20.6,16.4,10.2,81,65,43,30.53,30.40,2,0,13,0.00
2013-12-9,33.0,29.9,25.4,30.2,25.0,15.2,90,82,58,30.42,29.86,3,0,7,0.26
2013-12-10,33.3,29.5,19.1,30.1,24.8,12.5,90,83,68,29.96,29.76,6,0,10,0.08
2013-12-11,29.1,21.5,15.5,19.7,13.8,9.3,81,72,56,30.16,29.96,5,0,15,0.01
2013-12-12,22.5,18.5,12.2,15.0,5.2,-1.2,76,57,36,30.23,30.10,8,0,16,0.00
2013-12-13,27.4,21.7,10.2,15.4,10.5,2.7,74,62,51,30.32,29.96,8,1,23,0.00
2013-12-14,19.4,12.0,8.0,9.3,1.0,-4.5,81,61,50,30.53,30.04,3,0,10,0.02
2013-12-15,31.9,23.5,14.3,22.4,16.2,9.3,85,74,61,30.04,29.45,8,1,21,0.31
2013-12-16,25.8,19.2,7.1,15.6,6.2,-1.9,78,57,40,30.15,29.68,8,1,19,0.02
2013-12-17,17.8,9.4,0.2,11.5,1.7,-8.3,79,70,65,30.18,29.89,0,0,0,0.34
2013-12-18,30.8,20.9,13.3,17.8,12.3,5.7,78,69,57,30.02,29.87,3,0,15,0.01
2013-12-19,40.0,26.1,13.1,21.6,16.3,5.2,80,67,44,30.06,29.91,7,0,20,0.00
2013-12-20,41.8,33.0,27.7,32.4,26.5,21.5,87,77,53,30.05,29.87,2,0,6,0.01
2013-12-21,48.1,36.2,29.9,35.3,31.0,26.2,89,82,60,29.91,29.80,2,0,9,0.01
2013-12-22,54.1,39.9,35.5,54.1,39.0,32.4,100,96,89,29.90,29.65,6,0,15,0.01
2013-12-23,40.0,37.6,34.4,39.5,36.1,26.4,100,95,72,30.09,29.86,8,0,17,0.53
2013-12-24,34.4,28.7,18.6,26.6,12.8,2.6,73,52,37,30.21,30.01,9,1,23,0.00
2013-12-25,23.8,18.0,11.8,7.0,0.9,-2.9,62,47,34,30.45,30.21,9,1,24,0.03
2013-12-26,29.7,23.1,17.4,21.4,13.8,6.0,83,67,54,30.40,30.05,2,0,10,0.06
2013-12-27,35.2,25.9,16.2,19.7,15.5,10.3,82,66,43,30.22,30.15,5,0,12,0.01
2013-12-28,42.6,28.3,18.1,23.6,18.4,11.2,80,67,45,30.17,29.96,7,0,16,0.00
2013-12-29,35.8,31.7,25.8,33.7,27.5,20.5,92,85,71,29.98,29.44,5,0,11,1.12
2013-12-30,35.7,27.1,14.4,31.9,15.7,2.7,92,64,36,30.14,29.54,10,1,25,0.00
2013-12-31,23.9,17.3,9.7,12.1,5.0,1.0,71,58,46,30.14,29.95,8,0,20,0.00
2014-1-1,25.6,19.6,12.8,10.0,4.8,-0.2,68,53,38,30.31,30.13,7,0,16,0.00
2014-1-2,20.9,13.2,4.9,11.4,5.1,-2.5,73,70,62,30.27,29.78,6,0,16,0.12